Time;durP1;ratioP1;P1;durP2;ratioP2;P2;SDS_P1;SDS_P2;PMS_P1;PMS_P2;Temp;Humidity;BMP_temperature;BMP_pressure;BME280_temperature;BME280_humidity;BME280_pressure;Samples;Min_cycle;Max_cycle;Signal;HPM_P1;HPM_P2
2022/08/09 00:00:49;;;;;;;;;6.50;6.50;;;;;22.90;39.53;101751.91;5078802;27;45378;-52
2022/08/09 00:03:15;;;;;;;;;6.75;6.75;;;;;22.89;39.71;101752.00;5073609;27;45474;-51
2022/08/09 00:05:40;;;;;;;;;8.50;7.00;;;;;22.84;40.63;101760.31;5067287;27;65391;-48
2022/08/09 00:08:06;;;;;;;;;7.75;5.75;;;;;22.78;40.25;101755.34;5068206;28;62066;-50
2022/08/09 00:10:31;;;;;;;;;8.00;6.00;;;;;22.73;40.10;101760.09;5070566;27;45420;-48
2022/08/09 00:12:57;;;;;;;;;7.25;6.25;;;;;22.69;40.16;101754.09;5072671;27;69448;-47
2022/08/09 00:15:22;;;;;;;;;6.25;6.25;;;;;22.67;41.77;101750.66;5064924;28;73296;-51
2022/08/09 00:17:47;;;;;;;;;8.00;7.00;;;;;22.63;40.73;101756.28;5066199;27;64156;-47
2022/08/09 00:20:14;;;;;;;;;6.00;6.00;;;;;22.61;39.85;101750.19;5065025;27;48911;-52
2022/08/09 00:22:39;;;;;;;;;8.00;6.50;;;;;22.61;41.08;101750.19;5072287;27;45468;-50
2022/08/09 00:25:05;;;;;;;;;9.00;8.75;;;;;22.58;40.71;101742.38;5073621;27;52911;-51
2022/08/09 00:27:30;;;;;;;;;6.00;6.00;;;;;22.56;41.30;101747.81;5067342;27;45348;-52
2022/08/09 00:29:56;;;;;;;;;9.50;9.25;;;;;22.53;41.12;101748.00;5065579;27;45469;-49
2022/08/09 00:32:21;;;;;;;;;9.00;7.25;;;;;22.50;41.23;101738.34;5071673;28;45458;-52
2022/08/09 00:34:47;;;;;;;;;7.50;5.50;;;;;22.46;41.63;101741.31;5080371;27;45701;-46
2022/08/09 00:37:13;;;;;;;;;8.00;6.50;;;;;22.43;40.74;101734.34;5075293;27;45563;-49
2022/08/09 00:39:39;;;;;;;;;5.00;5.00;;;;;22.43;40.65;101739.69;5075314;27;45452;-48
2022/08/09 00:42:05;;;;;;;;;6.50;6.50;;;;;22.39;41.06;101743.50;5065069;27;45719;-49
2022/08/09 00:44:30;;;;;;;;;5.00;5.00;;;;;22.36;40.94;101730.34;5074483;27;45316;-51
2022/08/09 00:46:56;;;;;;;;;5.75;5.75;;;;;22.35;41.59;101744.66;5073182;27;45425;-50
2022/08/09 00:49:21;;;;;;;;;9.00;6.00;;;;;22.33;42.39;101739.41;5069097;28;45492;-48
2022/08/09 00:51:48;;;;;;;;;6.00;6.00;;;;;22.29;41.61;101740.56;5073748;28;45454;-47
2022/08/09 00:54:14;;;;;;;;;6.00;5.50;;;;;22.25;42.24;101741.63;5071402;27;45333;-50
2022/08/09 00:56:39;;;;;;;;;11.25;7.00;;;;;22.18;41.80;101742.94;5077278;28;45538;-50
2022/08/09 00:59:05;;;;;;;;;6.50;6.25;;;;;22.13;43.21;101747.69;5067685;28;45365;-47
2022/08/09 01:01:36;;;;;;;;;8.00;6.75;;;;;22.07;42.67;101734.75;5059833;28;46095;-51
2022/08/09 01:04:20;;;;;;;;;5.00;5.00;;;;;22.07;42.80;101745.41;5075050;27;45605;-52
2022/08/09 01:07:23;;;;;;;;;7.00;7.00;;;;;22.03;43.37;101738.53;5068530;27;45341;-47
2022/08/09 01:10:11;;;;;;;;;7.00;7.00;;;;;22.04;42.22;101742.91;5069635;28;45338;-51
2022/08/09 01:12:54;;;;;;;;;9.00;7.25;;;;;22.02;43.94;101747.50;5073977;27;46600;-49
2022/08/09 01:15:23;;;;;;;;;5.50;5.25;;;;;21.98;42.96;101741.47;5068287;27;45537;-48
2022/08/09 01:17:58;;;;;;;;;8.75;6.00;;;;;21.94;43.04;101737.28;5074292;28;45363;-48
2022/08/09 01:20:35;;;;;;;;;7.75;6.00;;;;;21.89;42.48;101737.56;5052837;28;45338;-50
2022/08/09 01:23:19;;;;;;;;;6.50;6.50;;;;;21.87;42.97;101739.44;5072936;27;45453;-48
2022/08/09 01:26:03;;;;;;;;;8.25;8.25;;;;;21.85;44.09;101735.13;5070983;28;45384;-49
2022/08/09 01:28:29;;;;;;;;;9.25;5.50;;;;;21.78;43.77;101734.66;5067999;28;45363;-50
2022/08/09 01:30:57;;;;;;;;;7.00;5.50;;;;;21.75;44.49;101737.50;5065403;28;45485;-48
2022/08/09 01:33:27;;;;;;;;;5.75;5.75;;;;;21.70;43.67;101731.56;5066469;28;47092;-49
2022/08/09 01:35:58;;;;;;;;;6.75;5.00;;;;;21.66;43.93;101741.56;5068410;28;45446;-47
2022/08/09 01:38:26;;;;;;;;;4.00;4.00;;;;;21.63;44.00;101740.88;5057253;28;45576;-51
2022/08/09 01:41:05;;;;;;;;;6.00;6.00;;;;;21.60;43.96;101737.44;5068437;27;45371;-52
2022/08/09 01:43:32;;;;;;;;;5.50;5.50;;;;;21.58;44.21;101741.13;5080383;27;47587;-49
2022/08/09 01:45:58;;;;;;;;;6.00;6.00;;;;;21.55;43.68;101744.84;5071981;28;45568;-52
2022/08/09 01:48:24;;;;;;;;;5.00;5.00;;;;;21.53;44.05;101738.75;5068261;28;66465;-49
2022/08/09 01:50:51;;;;;;;;;7.00;6.75;;;;;21.52;44.48;101739.69;5073893;27;45302;-52
2022/08/09 01:53:17;;;;;;;;;5.00;5.00;;;;;21.51;44.81;101745.94;5068680;28;46249;-50
2022/08/09 01:55:44;;;;;;;;;6.25;6.25;;;;;21.45;45.94;101732.94;5072917;28;45479;-49
2022/08/09 01:58:11;;;;;;;;;5.00;5.00;;;;;21.40;45.37;101735.88;5065458;28;45398;-51
2022/08/09 02:00:37;;;;;;;;;8.00;5.75;;;;;21.36;45.06;101737.00;5083739;27;45282;-52
2022/08/09 02:03:04;;;;;;;;;8.50;7.50;;;;;21.34;44.71;101730.91;5063634;28;71862;-49
2022/08/09 02:05:32;;;;;;;;;8.00;6.75;;;;;21.29;45.78;101732.13;5084858;27;45758;-53
2022/08/09 02:08:03;;;;;;;;;6.25;6.00;;;;;21.26;45.91;101732.28;5061115;28;45605;-48
2022/08/09 02:10:31;;;;;;;;;8.75;5.50;;;;;21.19;45.89;101727.28;5068428;28;45188;-51
2022/08/09 02:13:00;;;;;;;;;7.00;7.00;;;;;21.15;45.44;101727.56;5088270;27;45666;-48
2022/08/09 02:15:26;;;;;;;;;4.75;4.00;;;;;21.14;45.58;101732.03;5077363;27;45448;-51
2022/08/09 02:17:52;;;;;;;;;8.50;7.50;;;;;21.15;45.63;101733.72;5076689;27;45226;-52
2022/08/09 02:20:18;;;;;;;;;5.75;5.75;;;;;21.14;46.24;101734.69;5070727;28;45379;-50
2022/08/09 02:22:57;;;;;;;;;6.00;5.25;;;;;21.11;47.07;101729.53;5057602;28;46840;-49
2022/08/09 02:25:31;;;;;;;;;6.00;5.25;;;;;21.07;45.93;101729.78;5071809;27;45380;-49
2022/08/09 02:28:16;;;;;;;;;6.50;5.25;;;;;21.03;46.40;101729.09;5071920;28;45465;-49
2022/08/09 02:30:47;;;;;;;;;9.25;6.00;;;;;21.01;46.49;101728.31;5053855;28;45600;-50
2022/08/09 02:33:16;;;;;;;;;9.75;6.00;;;;;20.98;46.41;101728.47;5066120;28;45721;-51
2022/08/09 02:35:41;;;;;;;;;6.00;6.00;;;;;20.95;46.53;101726.00;5078307;27;45261;-50
2022/08/09 02:38:10;;;;;;;;;8.25;6.00;;;;;20.91;47.55;101735.09;5065924;27;45327;-51
2022/08/09 02:40:37;;;;;;;;;5.50;5.50;;;;;20.85;46.87;101728.28;5062335;28;45509;-48
2022/08/09 02:43:03;;;;;;;;;6.50;6.50;;;;;20.84;46.80;101724.78;5069273;28;45458;-46
2022/08/09 02:45:33;;;;;;;;;3.75;3.00;;;;;20.84;46.78;101719.47;5069969;27;65453;-48
2022/08/09 02:48:04;;;;;;;;;7.75;6.25;;;;;20.84;46.08;101719.47;5072945;27;45566;-51
2022/08/09 02:50:35;;;;;;;;;6.00;5.00;;;;;20.83;46.77;101728.38;5085328;27;45532;-48
2022/08/09 02:53:04;;;;;;;;;6.00;6.00;;;;;20.82;46.83;101725.78;5069593;27;45569;-48
2022/08/09 02:55:30;;;;;;;;;11.25;6.75;;;;;20.81;47.88;101722.28;5067376;28;45409;-52
2022/08/09 02:57:57;;;;;;;;;7.50;6.00;;;;;20.77;46.96;101714.53;5065930;27;45528;-52
2022/08/09 03:00:24;;;;;;;;;8.50;7.00;;;;;20.75;47.39;101706.66;5062351;28;69438;-50
2022/08/09 03:02:54;;;;;;;;;4.00;4.00;;;;;20.73;47.06;101713.00;5065232;27;47267;-48
2022/08/09 03:05:20;;;;;;;;;6.75;6.00;;;;;20.69;48.11;101712.31;5072652;27;45301;-47
2022/08/09 03:07:48;;;;;;;;;7.00;6.00;;;;;20.64;47.00;101717.00;5072434;27;45431;-49
2022/08/09 03:10:14;;;;;;;;;7.25;7.00;;;;;20.61;47.79;101712.72;5079968;27;45311;-52
2022/08/09 03:12:40;;;;;;;;;8.75;7.00;;;;;20.57;47.88;101719.09;5077026;28;45232;-49
2022/08/09 03:15:07;;;;;;;;;7.25;7.25;;;;;20.57;48.80;101720.91;5065055;27;45288;-47
2022/08/09 03:17:35;;;;;;;;;9.00;7.50;;;;;20.51;48.34;101719.44;5048625;28;45456;-52
2022/08/09 03:20:01;;;;;;;;;8.50;6.25;;;;;20.46;48.73;101716.16;5070094;28;45403;-49
2022/08/09 03:22:29;;;;;;;;;8.25;6.00;;;;;20.41;47.93;101719.06;5056530;28;48295;-50
2022/08/09 03:24:54;;;;;;;;;9.75;6.50;;;;;20.38;48.99;101721.03;5076561;27;45944;-52
2022/08/09 03:27:20;;;;;;;;;8.00;7.00;;;;;20.37;47.88;101714.00;5066530;28;59652;-48
2022/08/09 03:29:46;;;;;;;;;6.00;6.00;;;;;20.37;49.24;101721.97;5080310;28;70427;-50
2022/08/09 03:32:11;;;;;;;;;6.00;4.00;;;;;20.34;48.37;101716.81;5068431;27;45417;-49
2022/08/09 03:34:37;;;;;;;;;7.00;7.00;;;;;20.33;48.86;101717.75;5074643;28;47169;-49
2022/08/09 03:37:02;;;;;;;;;5.00;5.00;;;;;20.31;48.56;101717.84;5091871;27;62700;-52
2022/08/09 03:39:28;;;;;;;;;9.25;7.00;;;;;20.32;48.45;101714.22;5078518;27;45288;-53
2022/08/09 03:41:54;;;;;;;;;7.25;6.75;;;;;20.29;49.24;101727.66;5074215;27;45821;-49
2022/08/09 03:44:21;;;;;;;;;8.50;5.50;;;;;20.26;48.77;101717.22;5078465;28;45308;-51
2022/08/09 03:46:46;;;;;;;;;7.50;6.00;;;;;20.24;48.02;101716.44;5071241;27;45784;-49
2022/08/09 03:49:12;;;;;;;;;8.00;6.00;;;;;20.25;49.23;101715.50;5076160;28;45301;-48
2022/08/09 03:51:39;;;;;;;;;5.50;5.50;;;;;20.24;48.43;101719.09;5079067;27;45856;-51
2022/08/09 03:54:05;;;;;;;;;8.75;7.00;;;;;20.23;49.01;101714.72;5068631;27;45745;-51
2022/08/09 03:56:30;;;;;;;;;7.75;6.75;;;;;20.19;48.53;101716.69;5074319;27;60951;-52
2022/08/09 03:58:56;;;;;;;;;8.00;6.50;;;;;20.19;48.50;101719.34;5062696;27;45451;-52
2022/08/09 04:01:22;;;;;;;;;12.25;9.75;;;;;20.18;48.62;101722.91;5077878;28;46087;-49
2022/08/09 04:03:48;;;;;;;;;11.25;9.25;;;;;20.16;49.43;101718.63;5078858;27;61527;-51
2022/08/09 04:06:14;;;;;;;;;6.00;5.75;;;;;20.13;48.94;101718.78;5062545;27;45231;-52
2022/08/09 04:08:40;;;;;;;;;8.25;6.25;;;;;20.13;49.09;101716.13;5062640;28;59627;-51
2022/08/09 04:11:05;;;;;;;;;6.50;5.00;;;;;20.09;48.98;101724.25;5066945;27;45586;-48
2022/08/09 04:13:30;;;;;;;;;7.25;6.00;;;;;20.06;50.00;101729.75;5064216;28;45276;-53
2022/08/09 04:15:56;;;;;;;;;10.50;6.00;;;;;20.03;49.65;101726.38;5075067;27;45261;-49
2022/08/09 04:18:21;;;;;;;;;6.75;5.50;;;;;20.02;49.79;101738.78;5076699;27;66934;-49
2022/08/09 04:20:46;;;;;;;;;9.00;8.50;;;;;19.97;49.72;101735.50;5068353;27;60503;-49
2022/08/09 04:23:12;;;;;;;;;6.00;4.00;;;;;19.91;49.49;101726.03;5076222;27;45406;-49
2022/08/09 04:25:37;;;;;;;;;5.00;5.00;;;;;19.93;48.87;101733.94;5065357;27;58374;-50
2022/08/09 04:28:03;;;;;;;;;7.25;5.75;;;;;19.94;49.48;101734.78;5068341;28;63193;-51
2022/08/09 04:30:28;;;;;;;;;9.25;9.25;;;;;19.95;49.00;101731.22;5075174;27;46032;-48
2022/08/09 04:32:54;;;;;;;;;8.75;6.00;;;;;19.96;49.96;101736.47;5077624;28;45346;-52
2022/08/09 04:35:19;;;;;;;;;7.25;6.00;;;;;19.96;49.01;101739.13;5077453;27;45321;-53
2022/08/09 04:37:44;;;;;;;;;8.75;8.00;;;;;19.97;49.55;101743.47;5075155;27;61002;-49
2022/08/09 04:40:10;;;;;;;;;7.50;7.00;;;;;19.96;49.82;101744.44;5073754;27;46219;-51
2022/08/09 04:42:36;;;;;;;;;10.00;7.50;;;;;19.95;48.96;101742.69;5072626;27;45294;-51
2022/08/09 04:45:03;;;;;;;;;9.00;6.25;;;;;19.94;49.57;101742.75;5078818;27;45237;-49
2022/08/09 04:47:28;;;;;;;;;6.50;6.00;;;;;19.94;49.35;101748.09;5077748;27;45248;-51
2022/08/09 04:49:54;;;;;;;;;5.50;5.50;;;;;19.95;49.48;101744.50;5076309;28;45886;-48
2022/08/09 04:52:22;;;;;;;;;6.00;5.75;;;;;19.94;48.81;101751.63;5069226;28;45297;-50
2022/08/09 04:54:50;;;;;;;;;8.50;7.00;;;;;19.96;49.63;101746.22;5069367;28;45822;-49
2022/08/09 04:57:15;;;;;;;;;10.50;8.00;;;;;19.96;49.16;101746.22;5068389;27;45572;-50
2022/08/09 04:59:41;;;;;;;;;7.00;7.00;;;;;19.97;50.08;101751.44;5060901;27;45449;-53
2022/08/09 05:02:06;;;;;;;;;7.50;5.75;;;;;19.97;49.49;101751.44;5077824;28;45205;-51
2022/08/09 05:04:32;;;;;;;;;7.00;7.00;;;;;19.96;49.92;101755.06;5066945;28;45248;-51
2022/08/09 05:06:58;;;;;;;;;5.50;5.00;;;;;19.96;49.14;101756.88;5066208;27;45490;-49
2022/08/09 05:09:23;;;;;;;;;9.50;6.50;;;;;19.96;49.47;101759.53;5076568;28;48211;-49
2022/08/09 05:11:48;;;;;;;;;6.75;5.75;;;;;19.95;49.79;101755.13;5075870;27;71873;-49
2022/08/09 05:14:13;;;;;;;;;8.25;8.00;;;;;19.92;49.63;101754.34;5066818;28;45331;-52
2022/08/09 05:16:39;;;;;;;;;5.50;5.25;;;;;19.91;49.90;101755.28;5066510;28;45429;-50
2022/08/09 05:19:04;;;;;;;;;7.00;5.75;;;;;19.89;50.17;101756.31;5070761;27;45526;-52
2022/08/09 05:21:30;;;;;;;;;5.50;5.50;;;;;19.86;49.62;101754.63;5065634;28;45390;-50
2022/08/09 05:23:57;;;;;;;;;6.50;6.50;;;;;19.84;50.25;101750.34;5060664;28;45424;-52
2022/08/09 05:26:22;;;;;;;;;9.50;7.50;;;;;19.84;50.47;101753.00;5058928;28;45506;-51
2022/08/09 05:28:47;;;;;;;;;7.00;6.00;;;;;19.82;50.96;101758.41;5074195;28;46064;-52
2022/08/09 05:31:13;;;;;;;;;8.50;8.00;;;;;19.78;50.28;101759.50;5068325;27;54077;-50
2022/08/09 05:33:38;;;;;;;;;7.25;6.00;;;;;19.76;50.44;101763.13;5075429;28;65956;-49
2022/08/09 05:36:04;;;;;;;;;7.00;7.00;;;;;19.73;50.32;101767.69;5058677;28;58876;-50
2022/08/09 05:38:31;;;;;;;;;7.50;6.00;;;;;19.73;51.28;101766.78;5072001;28;46378;-50
2022/08/09 05:40:57;;;;;;;;;6.50;6.00;;;;;19.70;50.24;101773.09;5077854;27;45343;-48
2022/08/09 05:43:22;;;;;;;;;6.25;6.25;;;;;19.68;51.09;101774.13;5070612;27;45457;-51
2022/08/09 05:45:47;;;;;;;;;6.50;6.00;;;;;19.66;50.52;101776.00;5070929;27;45433;-49
2022/08/09 05:48:13;;;;;;;;;7.50;7.00;;;;;19.65;51.48;101774.25;5068714;27;68101;-53
2022/08/09 05:50:40;;;;;;;;;8.50;8.00;;;;;19.66;50.03;101781.31;5075379;27;45486;-51
2022/08/09 05:53:06;;;;;;;;;7.00;7.00;;;;;19.65;51.04;101775.13;5074492;27;45477;-47
2022/08/09 05:55:31;;;;;;;;;11.25;8.00;;;;;19.67;50.53;101783.00;5074619;28;45632;-49
2022/08/09 05:57:57;;;;;;;;;7.75;7.25;;;;;19.70;50.27;101774.91;5077724;28;59160;-51
2022/08/09 06:00:22;;;;;;;;;7.00;7.00;;;;;19.76;50.09;101774.66;5059165;27;45714;-54
2022/08/09 06:02:48;;;;;;;;;9.00;6.00;;;;;19.79;50.95;101782.44;5072730;27;45524;-54
2022/08/09 06:05:13;;;;;;;;;6.00;6.00;;;;;19.79;50.83;101790.41;5067090;27;45582;-49
2022/08/09 06:07:38;;;;;;;;;8.50;7.25;;;;;19.80;50.60;101789.50;5078602;27;47162;-50
2022/08/09 06:10:04;;;;;;;;;7.00;6.25;;;;;19.80;50.52;101791.28;5070526;27;45278;-50
2022/08/09 06:12:30;;;;;;;;;6.50;5.75;;;;;19.81;50.08;101783.22;5073136;27;45411;-50
2022/08/09 06:14:56;;;;;;;;;7.50;7.50;;;;;19.84;50.17;101782.22;5077283;27;45394;-48
2022/08/09 06:17:21;;;;;;;;;10.25;7.25;;;;;19.86;50.85;101778.53;5082379;27;45402;-50
2022/08/09 06:19:47;;;;;;;;;9.00;8.00;;;;;19.88;50.78;101794.41;5070945;27;57226;-47
2022/08/09 06:22:14;;;;;;;;;9.75;8.25;;;;;19.85;50.46;101789.28;5071453;27;45330;-49
2022/08/09 06:24:39;;;;;;;;;11.00;8.00;;;;;19.87;50.17;101798.03;5078814;27;45466;-49
2022/08/09 06:27:04;;;;;;;;;7.25;5.75;;;;;19.89;50.58;101801.47;5074800;27;67751;-45
2022/08/09 06:29:30;;;;;;;;;10.00;7.50;;;;;19.93;50.38;101803.03;5073548;27;66540;-48
2022/08/09 06:31:55;;;;;;;;;6.50;6.50;;;;;19.93;50.49;101811.00;5076368;27;50706;-49
2022/08/09 06:34:21;;;;;;;;;6.00;6.00;;;;;19.90;50.80;101819.09;5076414;27;65109;-51
2022/08/09 06:36:46;;;;;;;;;8.00;8.00;;;;;19.90;50.44;101811.13;5073344;27;46460;-47
2022/08/09 06:39:12;;;;;;;;;6.75;6.75;;;;;19.92;50.47;101818.13;5072057;27;67073;-46
2022/08/09 06:41:38;;;;;;;;;9.25;7.50;;;;;19.97;49.85;101811.69;5069185;27;45416;-49
2022/08/09 06:44:03;;;;;;;;;8.00;5.75;;;;;20.02;49.98;101820.31;5074276;27;45528;-48
2022/08/09 06:46:30;;;;;;;;;6.50;6.00;;;;;20.06;50.34;101816.56;5069140;27;45318;-48
2022/08/09 06:48:55;;;;;;;;;10.75;8.00;;;;;20.10;49.95;101826.97;5076798;28;45759;-49
2022/08/09 06:51:20;;;;;;;;;6.50;6.00;;;;;20.15;50.20;101818.78;5080567;27;45443;-48
2022/08/09 06:53:46;;;;;;;;;8.00;6.50;;;;;20.20;49.91;101815.88;5073377;27;54309;-46
2022/08/09 06:56:11;;;;;;;;;9.50;8.50;;;;;20.26;50.25;101820.91;5072599;28;46982;-47
2022/08/09 06:58:37;;;;;;;;;12.75;8.00;;;;;20.30;49.94;101831.28;5075633;27;69236;-47
2022/08/09 07:01:03;;;;;;;;;8.75;8.00;;;;;20.34;49.36;101823.16;5073085;27;45445;-47
2022/08/09 07:03:28;;;;;;;;;9.25;7.50;;;;;20.35;49.67;101819.56;5062575;28;45420;-50
2022/08/09 07:05:54;;;;;;;;;7.00;6.50;;;;;20.38;49.14;101822.03;5061574;28;46793;-57
2022/08/09 07:08:20;;;;;;;;;8.00;7.00;;;;;20.41;49.60;101829.88;5067011;27;45465;-58
2022/08/09 07:10:46;;;;;;;;;13.00;8.25;;;;;20.45;49.19;101827.00;5036781;27;45521;-56
2022/08/09 07:13:11;;;;;;;;;8.00;7.25;;;;;20.53;49.30;101825.75;5065511;27;52110;-57
2022/08/09 07:15:36;;;;;;;;;10.75;8.00;;;;;20.53;48.73;101820.41;5065102;27;62927;-54
2022/08/09 07:18:02;;;;;;;;;9.00;7.00;;;;;20.63;49.32;101825.22;5074061;27;67698;-57
2022/08/09 07:20:27;;;;;;;;;9.25;6.25;;;;;20.70;48.43;101832.84;5073486;27;45458;-55
2022/08/09 07:22:53;;;;;;;;;8.50;6.25;;;;;20.78;48.30;101826.19;5072330;28;45423;-56
2022/08/09 07:25:19;;;;;;;;;8.00;7.25;;;;;20.83;48.72;101828.63;5051340;27;47159;-55
2022/08/09 07:27:45;;;;;;;;;7.00;6.00;;;;;20.88;48.39;101828.41;5067705;28;45511;-55
2022/08/09 07:30:12;;;;;;;;;7.25;5.75;;;;;20.90;48.36;101823.84;5073923;28;46258;-55
2022/08/09 07:32:38;;;;;;;;;9.00;7.25;;;;;20.93;48.60;101834.31;5073995;28;45672;-56
2022/08/09 07:35:05;;;;;;;;;8.25;7.25;;;;;20.95;48.08;101835.97;5080807;27;45409;-55
2022/08/09 07:37:30;;;;;;;;;8.50;7.75;;;;;21.00;47.63;101827.72;5068285;27;45786;-56
2022/08/09 07:39:56;;;;;;;;;10.00;8.25;;;;;21.05;47.94;101825.66;5065931;27;65788;-56
2022/08/09 07:42:22;;;;;;;;;9.00;8.00;;;;;21.09;47.94;101824.59;5075557;28;66645;-55
2022/08/09 07:44:48;;;;;;;;;7.00;7.00;;;;;21.13;47.93;101827.94;5071391;27;46218;-57
2022/08/09 07:47:13;;;;;;;;;8.00;7.00;;;;;21.15;47.65;101826.06;5069436;27;45288;-57
2022/08/09 07:49:38;;;;;;;;;11.00;8.00;;;;;21.21;47.51;101825.69;5078357;27;50229;-56
2022/08/09 07:52:04;;;;;;;;;7.50;7.25;;;;;21.28;47.51;101821.75;5069101;27;72054;-56
2022/08/09 07:54:30;;;;;;;;;8.00;7.00;;;;;21.33;46.83;101818.84;5069975;27;73637;-55
2022/08/09 07:56:55;;;;;;;;;8.00;7.25;;;;;21.39;47.00;101821.19;5080626;27;45308;-54
2022/08/09 07:59:21;;;;;;;;;6.75;6.75;;;;;21.46;46.93;101830.59;5080745;27;45360;-57
2022/08/09 08:01:46;;;;;;;;;7.00;7.00;;;;;21.52;46.61;101830.25;5074475;27;62128;-55
2022/08/09 08:04:11;;;;;;;;;11.25;7.00;;;;;21.57;46.59;101827.34;5073856;27;60448;-56
2022/08/09 08:06:37;;;;;;;;;7.50;7.50;;;;;21.65;46.23;101818.91;5078977;27;64369;-55
2022/08/09 08:09:02;;;;;;;;;6.25;4.75;;;;;21.71;46.27;101834.53;5078723;28;45396;-57
2022/08/09 08:11:28;;;;;;;;;12.00;10.00;;;;;21.78;46.23;101830.59;5073749;28;45599;-57
2022/08/09 08:13:53;;;;;;;;;10.50;6.75;;;;;21.85;45.33;101825.75;5079024;27;45373;-56
2022/08/09 08:16:18;;;;;;;;;6.00;6.00;;;;;21.92;45.88;101835.09;5079582;27;45230;-57
2022/08/09 08:18:44;;;;;;;;;8.00;6.00;;;;;22.02;45.57;101838.13;5075171;27;45274;-55
2022/08/09 08:21:09;;;;;;;;;7.00;6.75;;;;;22.11;45.24;101834.91;5077809;27;47011;-55
2022/08/09 08:23:35;;;;;;;;;8.00;6.50;;;;;22.21;44.91;101836.09;5073060;27;45440;-57
2022/08/09 08:26:00;;;;;;;;;9.25;8.50;;;;;22.32;45.11;101833.69;5076669;28;45417;-59
2022/08/09 08:28:25;;;;;;;;;10.75;10.00;;;;;22.41;44.21;101836.75;5078997;28;46616;-56
2022/08/09 08:30:51;;;;;;;;;8.75;8.00;;;;;22.49;44.25;101835.34;5079181;27;45409;-57
2022/08/09 08:33:16;;;;;;;;;10.00;8.00;;;;;22.56;43.89;101833.19;5094226;27;45432;-54
2022/08/09 08:35:42;;;;;;;;;6.50;6.00;;;;;22.65;43.83;101837.97;5075440;28;45598;-58
2022/08/09 08:38:08;;;;;;;;;6.00;6.00;;;;;22.77;43.83;101838.16;5073301;27;45303;-57
2022/08/09 08:40:33;;;;;;;;;8.00;8.00;;;;;22.86;43.78;101841.13;5076538;27;45493;-58
2022/08/09 08:43:00;;;;;;;;;7.50;7.00;;;;;22.96;43.32;101837.91;5078612;27;45630;-56
2022/08/09 08:45:28;;;;;;;;;7.50;6.25;;;;;;;;5057149;28;45911;-56
2022/08/09 08:47:53;;;;;;;;;8.25;7.00;;;;;23.13;42.73;101829.72;5062229;28;45246;-56
2022/08/09 08:50:18;;;;;;;;;5.00;4.75;;;;;23.22;42.72;101830.97;5062758;28;45593;-55
2022/08/09 08:52:44;;;;;;;;;6.50;6.00;;;;;23.28;42.40;101831.44;5069680;28;47330;-58
2022/08/09 08:55:10;;;;;;;;;5.00;5.00;;;;;23.38;42.42;101829.03;5061404;28;62279;-57
2022/08/09 08:57:36;;;;;;;;;7.75;7.00;;;;;23.47;42.17;101824.91;5080468;27;45156;-55
2022/08/09 09:00:03;;;;;;;;;6.00;6.00;;;;;23.56;42.08;101826.13;5095529;27;45259;-56
2022/08/09 09:02:28;;;;;;;;;7.00;6.00;;;;;23.63;40.66;101827.44;5079968;27;45392;-56
2022/08/09 09:04:59;;;;;;;;;8.50;8.50;;;;;23.72;41.06;101826.00;5078008;27;45345;-55
2022/08/09 09:07:26;;;;;;;;;6.75;6.00;;;;;23.77;41.53;101818.53;5095211;27;45254;-56
2022/08/09 09:09:52;;;;;;;;;8.50;6.00;;;;;23.86;41.08;101826.81;5078472;28;45442;-57
2022/08/09 09:12:25;;;;;;;;;8.25;7.00;;;;;23.98;41.35;101832.34;5077941;27;48245;-57
2022/08/09 09:14:50;;;;;;;;;6.00;6.00;;;;;24.11;40.54;101825.19;5077525;28;45470;-56
2022/08/09 09:17:16;;;;;;;;;7.00;6.00;;;;;24.23;40.66;101834.22;5061747;27;45435;-57
2022/08/09 09:19:41;;;;;;;;;6.50;6.50;;;;;24.35;40.29;101820.03;5076854;27;45160;-56
2022/08/09 09:22:14;;;;;;;;;6.75;6.00;;;;;24.57;39.52;101827.44;5078252;27;46157;-56
2022/08/09 09:24:44;;;;;;;;;8.00;7.00;;;;;24.91;39.74;101822.41;5076423;27;45216;-56
2022/08/09 09:27:12;;;;;;;;;6.00;6.00;;;;;25.31;38.13;101824.13;5095440;27;45309;-58
2022/08/09 09:29:41;;;;;;;;;3.50;3.50;;;;;25.83;36.93;101832.84;5092030;27;45259;-58
2022/08/09 09:32:06;;;;;;;;;4.25;4.25;;;;;26.38;37.04;101828.69;5078065;28;47213;-58
2022/08/09 09:34:33;;;;;;;;;5.00;5.00;;;;;27.00;35.75;101822.13;5079242;27;45366;-58
2022/08/09 09:36:59;;;;;;;;;8.00;5.00;;;;;27.68;36.36;101813.97;5078138;27;45418;-57
2022/08/09 09:39:26;;;;;;;;;4.00;4.00;;;;;28.39;32.27;101811.59;5078169;28;45528;-58
2022/08/09 09:41:52;;;;;;;;;5.50;4.00;;;;;29.11;34.18;101817.06;5076172;27;45972;-58
2022/08/09 09:44:28;;;;;;;;;4.50;4.50;;;;;29.93;33.19;101813.31;5077160;28;45237;-58
2022/08/09 09:47:24;;;;;;;;;5.00;5.00;;;;;30.81;31.21;101815.88;5061573;27;45415;-59
2022/08/09 09:49:51;;;;;;;;;6.00;4.00;;;;;31.74;32.36;101807.72;5070350;27;45209;-59
2022/08/09 09:52:16;;;;;;;;;6.75;4.75;;;;;32.57;26.88;101809.25;5072735;27;46147;-59
2022/08/09 09:54:45;;;;;;;;;4.25;4.25;;;;;33.33;28.46;101805.75;5072069;28;45245;-58
2022/08/09 09:57:23;;;;;;;;;3.50;3.50;;;;;34.24;27.27;101802.09;5078260;27;45490;-60
2022/08/09 09:59:50;;;;;;;;;5.00;5.00;;;;;35.09;25.42;101803.41;5078986;27;45446;-59
2022/08/09 10:02:17;;;;;;;;;4.25;3.25;;;;;35.92;25.01;101804.63;5079237;27;45311;-59
2022/08/09 10:04:44;;;;;;;;;4.25;4.00;;;;;36.72;24.47;101793.31;5077135;27;45338;-59
2022/08/09 10:07:26;;;;;;;;;3.75;3.75;;;;;37.61;22.63;101796.69;5079067;27;45284;-59
2022/08/09 10:09:56;;;;;;;;;4.25;3.50;;;;;38.31;21.76;101796.91;5078477;27;45507;-59
2022/08/09 10:12:32;;;;;;;;;6.50;4.25;;;;;39.04;20.46;101796.50;5078670;27;46357;-60
2022/08/09 10:15:15;;;;;;;;;5.00;4.00;;;;;39.49;20.47;101804.25;5077854;27;45454;-61
2022/08/09 10:17:46;;;;;;;;;5.00;5.00;;;;;39.68;19.31;101802.56;5078037;27;45458;-61
2022/08/09 10:20:20;;;;;;;;;4.50;4.50;;;;;40.04;19.05;101793.97;5076922;27;45406;-58
2022/08/09 10:22:52;;;;;;;;;3.50;3.50;;;;;40.55;18.92;101791.56;5078505;27;46084;-61
2022/08/09 10:25:18;;;;;;;;;4.00;4.00;;;;;40.85;17.83;101786.41;5077862;27;45562;-61
2022/08/09 10:27:44;;;;;;;;;5.75;4.00;;;;;41.01;16.08;101789.72;5077797;27;45603;-60
2022/08/09 10:30:10;;;;;;;;;6.00;4.25;;;;;41.17;16.25;101791.94;5078008;27;45296;-61
2022/08/09 10:32:36;;;;;;;;;4.25;4.25;;;;;41.12;15.39;101784.38;5078856;28;45420;-61
2022/08/09 10:35:02;;;;;;;;;4.00;4.00;;;;;41.16;15.82;101793.03;5080956;28;45328;-60
2022/08/09 10:37:28;;;;;;;;;4.00;4.00;;;;;41.15;16.77;101789.44;5079616;27;45429;-60
2022/08/09 10:39:54;;;;;;;;;5.00;5.00;;;;;41.32;16.32;101787.03;5080439;27;45339;-59
2022/08/09 10:42:20;;;;;;;;;3.00;3.00;;;;;41.44;16.01;101780.84;5078645;27;45385;-60
2022/08/09 10:44:49;;;;;;;;;5.00;4.00;;;;;41.56;16.59;101779.03;5076211;27;45758;-60
2022/08/09 10:47:28;;;;;;;;;4.00;4.00;;;;;41.73;17.36;101774.69;5067396;27;45275;-60
2022/08/09 10:50:06;;;;;;;;;3.75;3.50;;;;;41.89;17.17;101776.03;5080562;28;45373;-60
2022/08/09 10:52:40;;;;;;;;;5.50;4.50;;;;;41.94;16.18;101775.38;5079882;27;45360;-60
2022/08/09 10:55:29;;;;;;;;;5.50;4.50;;;;;42.02;15.75;101775.09;5068300;27;45321;-61
2022/08/09 10:57:55;;;;;;;;;6.00;5.00;;;;;42.03;15.14;101768.50;5082067;27;45521;-60
2022/08/09 11:00:29;;;;;;;;;5.25;4.75;;;;;42.15;15.67;101767.81;5081587;27;45516;-60
2022/08/09 11:02:56;;;;;;;;;3.25;3.25;;;;;42.29;15.49;101769.34;5081348;28;46394;-61
2022/08/09 11:05:23;;;;;;;;;7.00;5.00;;;;;42.55;16.02;101773.72;5081167;27;45353;-60
2022/08/09 11:07:49;;;;;;;;;6.50;4.00;;;;;42.12;14.18;101763.59;5081511;27;45328;-61
2022/08/09 11:10:33;;;;;;;;;7.50;5.50;;;;;41.29;15.63;101771.00;5080770;27;45549;-60
2022/08/09 11:13:18;;;;;;;;;6.25;6.25;;;;;40.23;16.30;101763.97;5079433;27;45287;-60
2022/08/09 11:15:43;;;;;;;;;6.50;5.00;;;;;39.40;16.95;101767.97;5081684;27;45788;-60
2022/08/09 11:18:11;;;;;;;;;6.00;6.00;;;;;38.53;17.31;101767.59;5080729;27;45397;-60
2022/08/09 11:20:46;;;;;;;;;8.25;6.50;;;;;37.75;18.11;101764.94;5081229;27;45387;-58
2022/08/09 11:23:12;;;;;;;;;4.50;4.50;;;;;37.29;18.82;101759.81;5080187;27;45401;-59
2022/08/09 11:25:41;;;;;;;;;4.00;4.00;;;;;37.12;18.79;101761.09;5080279;27;45251;-58